Check out our new PWSWeather beta!
PWSweather.com
Personal Weather Stations
Station Observations
WARREN
Narre Warren , MelbourneAU

Narre Warren MelbourneAU

Lat: -38.0314269, Lon: 145.3160851

Elevation: 24

Station Type: Digiteck

http://www.aussiedownunder.net/

High Low Average
Temperature 81.3°F27.4°F 62.4°F16.9°F 69.1°F20.6°F
Dew Point 70.5°F21.4°F 58.4°F14.7°F 63.9°F17.7°F
Winds 4.9 mph -7.9 mph - Calm Calm 1.0 mph 1.6 mph
Wind Gusts 10.7 mph17.2 mph -- 3.7 mph6.0 mph
Humidity 95% 66% 84%
Pressure 30.09 in1019.00 in 29.96 in1014.60 in -
Precipitation 0.12 in3.00 in - -
Hour Temp Dew Point Humidity Winds Wind Gusts Pressure Precip Precip Rate Daily Precip Total
12:00 AM 64.8°F18.2°C 59.8°F15.4°C 84% Calm Calm -- 30.08 in1018.6 mb 0.00 in0.0 mm 0.00 in0.0 mm 0.00 in0.0 mm
12:15 AM 64.6°F18.1°C 60.0°F15.6°C 85% 0.2 mph NNE0.3 kmh NNE 2.2 mph3.5 kmh 30.08 in1018.6 mb 0.00 in0.0 mm 0.00 in0.0 mm 0.00 in0.0 mm
12:30 AM 64.4°F18.0°C 59.8°F15.4°C 85% Calm Calm 0.7 mph1.1 kmh 30.09 in1019.0 mb 0.00 in0.0 mm 0.00 in0.0 mm 0.00 in0.0 mm
12:45 AM 64.4°F18.0°C 59.8°F15.4°C 85% 0.1 mph NE0.2 kmh NE 1.6 mph2.6 kmh 30.09 in1019.0 mb 0.00 in0.0 mm 0.00 in0.0 mm 0.00 in0.0 mm
01:00 AM 64.0°F17.8°C 59.1°F15.1°C 84% Calm Calm 1.6 mph2.6 kmh 30.09 in1019.0 mb 0.00 in0.0 mm 0.00 in0.0 mm 0.00 in0.0 mm
01:15 AM 63.3°F17.4°C 58.4°F14.7°C 84% Calm Calm 0.7 mph1.1 kmh 30.07 in1018.3 mb 0.00 in0.0 mm 0.00 in0.0 mm 0.00 in0.0 mm
01:30 AM 63.3°F17.4°C 58.8°F14.9°C 85% Calm Calm -- 30.07 in1018.3 mb 0.00 in0.0 mm 0.00 in0.0 mm 0.00 in0.0 mm
01:45 AM 63.1°F17.3°C 58.9°F14.9°C 86% Calm Calm 0.7 mph1.1 kmh 30.06 in1017.9 mb 0.00 in0.0 mm 0.00 in0.0 mm 0.00 in0.0 mm
02:00 AM 63.0°F17.2°C 59.0°F15.0°C 87% 0.1 mph NW0.2 kmh NW 1.6 mph2.6 kmh 30.07 in1018.3 mb 0.00 in0.0 mm 0.00 in0.0 mm 0.00 in0.0 mm
02:15 AM 62.4°F16.9°C 58.8°F14.9°C 88% Calm Calm -- 30.07 in1018.3 mb 0.00 in0.0 mm 0.00 in0.0 mm 0.00 in0.0 mm
02:30 AM 63.0°F17.2°C 59.7°F15.4°C 89% Calm Calm 0.7 mph1.1 kmh 30.06 in1017.9 mb 0.00 in0.0 mm 0.00 in0.0 mm 0.00 in0.0 mm
02:45 AM 63.1°F17.3°C 60.2°F15.7°C 90% Calm Calm 0.7 mph1.1 kmh 30.07 in1018.3 mb 0.00 in0.0 mm 0.00 in0.0 mm 0.00 in0.0 mm
03:00 AM 63.0°F17.2°C 60.0°F15.6°C 90% Calm Calm -- 30.07 in1018.3 mb 0.00 in0.0 mm 0.00 in0.0 mm 0.00 in0.0 mm
03:15 AM 62.6°F17.0°C 59.6°F15.3°C 90% Calm Calm 0.7 mph1.1 kmh 30.07 in1018.3 mb 0.00 in0.0 mm 0.00 in0.0 mm 0.00 in0.0 mm
03:30 AM 63.0°F17.2°C 60.3°F15.7°C 91% 0.2 mph SSE0.3 kmh SSE 2.2 mph3.5 kmh 30.06 in1017.9 mb 0.00 in0.0 mm 0.00 in0.0 mm 0.00 in0.0 mm
03:45 AM 62.6°F17.0°C 60.0°F15.6°C 91% Calm Calm -- 30.07 in1018.3 mb 0.00 in0.0 mm 0.00 in0.0 mm 0.00 in0.0 mm
04:00 AM 63.1°F17.3°C 60.5°F15.8°C 91% Calm Calm 0.7 mph1.1 kmh 30.06 in1017.9 mb 0.00 in0.0 mm 0.00 in0.0 mm 0.00 in0.0 mm
04:15 AM 63.7°F17.6°C 61.0°F16.1°C 91% 0.4 mph SSE0.6 kmh SSE 3.8 mph6.1 kmh 30.07 in1018.3 mb 0.00 in0.0 mm 0.00 in0.0 mm 0.00 in0.0 mm
04:30 AM 63.9°F17.7°C 61.5°F16.4°C 92% 1.0 mph SSE1.6 kmh SSE 6.0 mph9.7 kmh 30.07 in1018.3 mb 0.00 in0.0 mm 0.00 in0.0 mm 0.00 in0.0 mm
04:45 AM 63.5°F17.5°C 61.2°F16.2°C 92% Calm Calm 1.6 mph2.6 kmh 30.07 in1018.3 mb 0.00 in0.0 mm 0.00 in0.0 mm 0.00 in0.0 mm
05:00 AM 63.5°F17.5°C 61.2°F16.2°C 92% Calm Calm 0.7 mph1.1 kmh 30.07 in1018.3 mb 0.00 in0.0 mm 0.00 in0.0 mm 0.00 in0.0 mm
05:15 AM 63.3°F17.4°C 61.0°F16.1°C 92% Calm Calm 0.7 mph1.1 kmh 30.08 in1018.6 mb 0.00 in0.0 mm 0.00 in0.0 mm 0.00 in0.0 mm
05:30 AM 63.3°F17.4°C 61.0°F16.1°C 92% Calm Calm 0.7 mph1.1 kmh 30.07 in1018.3 mb 0.00 in0.0 mm 0.00 in0.0 mm 0.00 in0.0 mm
05:45 AM 62.8°F17.1°C 60.4°F15.8°C 92% Calm Calm 0.7 mph1.1 kmh 30.07 in1018.3 mb 0.00 in0.0 mm 0.00 in0.0 mm 0.00 in0.0 mm
06:00 AM 62.4°F16.9°C 60.4°F15.8°C 93% Calm Calm -- 30.07 in1018.3 mb 0.00 in0.0 mm 0.00 in0.0 mm 0.00 in0.0 mm
06:15 AM 63.1°F17.3°C 61.1°F16.2°C 93% Calm Calm 1.6 mph2.6 kmh 30.07 in1018.3 mb 0.00 in0.0 mm 0.00 in0.0 mm 0.00 in0.0 mm
06:30 AM 63.7°F17.6°C 61.6°F16.4°C 93% 0.1 mph E0.2 kmh E 2.2 mph3.5 kmh 30.07 in1018.3 mb 0.00 in0.0 mm 0.00 in0.0 mm 0.00 in0.0 mm
06:45 AM 64.4°F18.0°C 63.0°F17.2°C 95% 0.3 mph ENE0.5 kmh ENE 3.1 mph5.0 kmh 30.06 in1017.9 mb 0.00 in0.0 mm 0.00 in0.0 mm 0.00 in0.0 mm
07:00 AM 66.0°F18.9°C 64.6°F18.1°C 95% 0.3 mph E0.5 kmh E 2.2 mph3.5 kmh 30.07 in1018.3 mb 0.00 in0.0 mm 0.00 in0.0 mm 0.00 in0.0 mm
07:15 AM 66.9°F19.4°C 64.5°F18.1°C 92% 0.2 mph S0.3 kmh S 2.2 mph3.5 kmh 30.08 in1018.6 mb 0.00 in0.0 mm 0.00 in0.0 mm 0.00 in0.0 mm
07:30 AM 68.0°F20.0°C 64.7°F18.2°C 89% Calm Calm 1.6 mph2.6 kmh 30.08 in1018.6 mb 0.00 in0.0 mm 0.00 in0.0 mm 0.00 in0.0 mm
07:45 AM 68.7°F20.4°C 64.7°F18.2°C 87% Calm Calm 2.2 mph3.5 kmh 30.08 in1018.6 mb 0.00 in0.0 mm 0.00 in0.0 mm 0.00 in0.0 mm
08:00 AM 70.0°F21.1°C 64.6°F18.1°C 83% Calm Calm 1.6 mph2.6 kmh 30.08 in1018.6 mb 0.00 in0.0 mm 0.00 in0.0 mm 0.00 in0.0 mm
08:15 AM 70.5°F21.4°C 64.4°F18.0°C 81% Calm Calm 1.6 mph2.6 kmh 30.08 in1018.6 mb 0.00 in0.0 mm 0.00 in0.0 mm 0.00 in0.0 mm
08:30 AM 71.4°F21.9°C 63.9°F17.7°C 77% 0.4 mph S0.6 kmh S 3.1 mph5.0 kmh 30.08 in1018.6 mb 0.00 in0.0 mm 0.00 in0.0 mm 0.00 in0.0 mm
08:45 AM 73.0°F22.8°C 64.3°F17.9°C 74% 0.5 mph SE0.8 kmh SE 3.1 mph5.0 kmh 30.07 in1018.3 mb 0.00 in0.0 mm 0.00 in0.0 mm 0.00 in0.0 mm
09:00 AM 72.7°F22.6°C 63.6°F17.6°C 73% 0.8 mph S1.3 kmh S 4.5 mph7.2 kmh 30.08 in1018.6 mb 0.00 in0.0 mm 0.00 in0.0 mm 0.00 in0.0 mm
09:15 AM 71.8°F22.1°C 62.7°F17.1°C 73% 1.8 mph S2.9 kmh S 5.4 mph8.7 kmh 30.08 in1018.6 mb 0.00 in0.0 mm 0.00 in0.0 mm 0.00 in0.0 mm
09:30 AM 73.2°F22.9°C 64.1°F17.8°C 73% 1.7 mph S2.7 kmh S 4.5 mph7.2 kmh 30.08 in1018.6 mb 0.00 in0.0 mm 0.00 in0.0 mm 0.00 in0.0 mm
09:45 AM 75.0°F23.9°C 65.0°F18.3°C 71% 0.9 mph SSE1.4 kmh SSE 3.8 mph6.1 kmh 30.08 in1018.6 mb 0.00 in0.0 mm 0.00 in0.0 mm 0.00 in0.0 mm
10:00 AM 74.5°F23.6°C 64.1°F17.8°C 70% 1.1 mph SSE1.8 kmh SSE 3.8 mph6.1 kmh 30.08 in1018.6 mb 0.00 in0.0 mm 0.00 in0.0 mm 0.00 in0.0 mm
10:15 AM 74.1°F23.4°C 64.6°F18.1°C 72% 1.7 mph S2.7 kmh S 4.5 mph7.2 kmh 30.08 in1018.6 mb 0.00 in0.0 mm 0.00 in0.0 mm 0.00 in0.0 mm
10:30 AM 74.5°F23.6°C 64.9°F18.3°C 72% 1.3 mph SSE2.1 kmh SSE 4.5 mph7.2 kmh 30.08 in1018.6 mb 0.00 in0.0 mm 0.00 in0.0 mm 0.00 in0.0 mm
10:45 AM 73.2°F22.9°C 64.1°F17.8°C 73% 1.8 mph S2.9 kmh S 5.4 mph8.7 kmh 30.08 in1018.6 mb 0.00 in0.0 mm 0.00 in0.0 mm 0.00 in0.0 mm
11:00 AM 74.3°F23.5°C 65.9°F18.8°C 75% 1.9 mph S3.1 kmh S 6.0 mph9.7 kmh 30.07 in1018.3 mb 0.00 in0.0 mm 0.00 in0.0 mm 0.00 in0.0 mm
11:15 AM 73.9°F23.3°C 65.9°F18.8°C 76% 0.7 mph SE1.1 kmh SE 4.5 mph7.2 kmh 30.08 in1018.6 mb 0.00 in0.0 mm 0.00 in0.0 mm 0.00 in0.0 mm
11:30 AM 73.6°F23.1°C 66.3°F19.1°C 78% 0.3 mph SE0.5 kmh SE 3.1 mph5.0 kmh 30.08 in1018.6 mb 0.00 in0.0 mm 0.00 in0.0 mm 0.00 in0.0 mm
11:45 AM 73.0°F22.8°C 66.9°F19.4°C 81% 0.2 mph E0.3 kmh E 2.2 mph3.5 kmh 30.07 in1018.3 mb 0.01 in0.3 mm 0.04 in1.0 mm 0.01 in0.3 mm
12:00 PM 73.9°F23.3°C 69.2°F20.7°C 85% Calm Calm 1.6 mph2.6 kmh 30.07 in1018.3 mb 0.01 in0.3 mm 0.00 in0.0 mm 0.01 in0.3 mm
12:15 PM 75.0°F23.9°C 70.2°F21.2°C 85% 0.2 mph S0.3 kmh S 2.2 mph3.5 kmh 30.07 in1018.3 mb 0.02 in0.5 mm 0.04 in1.0 mm 0.02 in0.5 mm
12:30 PM 75.2°F24.0°C 69.0°F20.6°C 81% 1.1 mph SE1.8 kmh SE 4.5 mph7.2 kmh 30.07 in1018.3 mb 0.02 in0.5 mm 0.00 in0.0 mm 0.02 in0.5 mm
12:45 PM 77.4°F25.2°C 70.4°F21.3°C 79% 0.4 mph S0.6 kmh S 2.2 mph3.5 kmh 30.07 in1018.3 mb 0.01 in0.3 mm 0.00 in0.0 mm 0.02 in0.5 mm
01:00 PM 77.9°F25.5°C 69.4°F20.8°C 75% 1.2 mph SSE1.9 kmh SSE 4.5 mph7.2 kmh 30.06 in1017.9 mb 0.01 in0.3 mm 0.00 in0.0 mm 0.02 in0.5 mm
01:15 PM 78.3°F25.7°C 69.7°F20.9°C 75% 0.1 mph SE0.2 kmh SE 1.6 mph2.6 kmh 30.05 in1017.6 mb 0.00 in0.0 mm 0.00 in0.0 mm 0.02 in0.5 mm
01:30 PM 78.1°F25.6°C 69.9°F21.1°C 76% Calm Calm 1.6 mph2.6 kmh 30.05 in1017.6 mb 0.00 in0.0 mm 0.00 in0.0 mm 0.02 in0.5 mm
01:45 PM 78.6°F25.9°C 70.5°F21.4°C 76% Calm Calm 1.6 mph2.6 kmh 30.05 in1017.6 mb 0.00 in0.0 mm 0.00 in0.0 mm 0.02 in0.5 mm
02:00 PM 81.0°F27.2°C 69.5°F20.8°C 68% 0.2 mph S0.3 kmh S 2.2 mph3.5 kmh 30.04 in1017.3 mb 0.00 in0.0 mm 0.00 in0.0 mm 0.02 in0.5 mm
02:15 PM 81.3°F27.4°C 68.9°F20.5°C 66% 0.5 mph SSE0.8 kmh SSE 3.1 mph5.0 kmh 30.04 in1017.3 mb 0.00 in0.0 mm 0.00 in0.0 mm 0.02 in0.5 mm
02:30 PM 77.7°F25.4°C 66.4°F19.1°C 68% 4.3 mph S6.9 kmh S 9.8 mph15.8 kmh 30.04 in1017.3 mb 0.00 in0.0 mm 0.00 in0.0 mm 0.02 in0.5 mm
02:45 PM 75.6°F24.2°C 66.3°F19.1°C 73% 2.8 mph SSE4.5 kmh SSE 6.9 mph11.1 kmh 30.03 in1016.9 mb 0.00 in0.0 mm 0.00 in0.0 mm 0.02 in0.5 mm
03:00 PM 75.2°F24.0°C 66.8°F19.3°C 75% 2.1 mph S3.4 kmh S 7.6 mph12.2 kmh 30.03 in1016.9 mb 0.00 in0.0 mm 0.00 in0.0 mm 0.02 in0.5 mm
03:15 PM 75.2°F24.0°C 66.4°F19.1°C 74% 1.5 mph SSE2.4 kmh SSE 5.4 mph8.7 kmh 30.02 in1016.6 mb 0.00 in0.0 mm 0.00 in0.0 mm 0.02 in0.5 mm
03:30 PM 75.0°F23.9°C 67.0°F19.4°C 76% 2.3 mph SSE3.7 kmh SSE 6.0 mph9.7 kmh 30.02 in1016.6 mb 0.00 in0.0 mm 0.00 in0.0 mm 0.02 in0.5 mm
03:45 PM 73.8°F23.2°C 66.1°F18.9°C 77% 2.9 mph S4.7 kmh S 6.9 mph11.1 kmh 30.01 in1016.3 mb 0.00 in0.0 mm 0.00 in0.0 mm 0.02 in0.5 mm
04:00 PM 74.1°F23.4°C 66.1°F18.9°C 76% 2.2 mph S3.5 kmh S 6.9 mph11.1 kmh 30.00 in1015.9 mb 0.00 in0.0 mm 0.00 in0.0 mm 0.02 in0.5 mm
04:15 PM 74.1°F23.4°C 66.5°F19.2°C 77% 1.3 mph SSE2.1 kmh SSE 4.5 mph7.2 kmh 30.00 in1015.9 mb 0.00 in0.0 mm 0.00 in0.0 mm 0.02 in0.5 mm
04:30 PM 73.8°F23.2°C 66.5°F19.2°C 78% 1.8 mph S2.9 kmh S 7.6 mph12.2 kmh 29.99 in1015.6 mb 0.00 in0.0 mm 0.00 in0.0 mm 0.02 in0.5 mm
04:45 PM 73.0°F22.8°C 65.8°F18.8°C 78% 3.2 mph S5.1 kmh S 8.3 mph13.4 kmh 30.00 in1015.9 mb 0.00 in0.0 mm 0.00 in0.0 mm 0.02 in0.5 mm
05:00 PM 72.7°F22.6°C 65.8°F18.8°C 79% 4.9 mph S7.9 kmh S 9.2 mph14.8 kmh 30.00 in1015.9 mb 0.00 in0.0 mm 0.00 in0.0 mm 0.02 in0.5 mm
05:15 PM 72.3°F22.4°C 65.8°F18.8°C 80% 4.1 mph S6.6 kmh S 10.7 mph17.2 kmh 30.00 in1015.9 mb 0.00 in0.0 mm 0.00 in0.0 mm 0.02 in0.5 mm
05:30 PM 72.1°F22.3°C 65.7°F18.7°C 80% 3.5 mph SSE5.6 kmh SSE 8.3 mph13.4 kmh 30.00 in1015.9 mb 0.00 in0.0 mm 0.00 in0.0 mm 0.02 in0.5 mm
05:45 PM 71.6°F22.0°C 65.5°F18.6°C 81% 3.0 mph S4.8 kmh S 7.6 mph12.2 kmh 30.00 in1015.9 mb 0.00 in0.0 mm 0.00 in0.0 mm 0.02 in0.5 mm
06:00 PM 70.5°F21.4°C 64.8°F18.2°C 82% 3.5 mph S5.6 kmh S 7.6 mph12.2 kmh 30.00 in1015.9 mb 0.00 in0.0 mm 0.00 in0.0 mm 0.02 in0.5 mm
06:15 PM 69.8°F21.0°C 64.1°F17.8°C 82% 3.7 mph S6.0 kmh S 9.2 mph14.8 kmh 30.00 in1015.9 mb 0.00 in0.0 mm 0.00 in0.0 mm 0.02 in0.5 mm
06:30 PM 69.1°F20.6°C 64.1°F17.8°C 84% 4.1 mph S6.6 kmh S 8.3 mph13.4 kmh 30.00 in1015.9 mb 0.00 in0.0 mm 0.00 in0.0 mm 0.02 in0.5 mm
06:45 PM 68.5°F20.3°C 63.5°F17.5°C 84% 2.9 mph SSE4.7 kmh SSE 7.6 mph12.2 kmh 30.00 in1015.9 mb 0.00 in0.0 mm 0.00 in0.0 mm 0.02 in0.5 mm
07:00 PM 68.0°F20.0°C 63.3°F17.4°C 85% 3.5 mph S5.6 kmh S 7.6 mph12.2 kmh 30.00 in1015.9 mb 0.00 in0.0 mm 0.00 in0.0 mm 0.02 in0.5 mm
07:15 PM 67.8°F19.9°C 63.8°F17.7°C 87% 1.6 mph S2.6 kmh S 5.4 mph8.7 kmh 30.00 in1015.9 mb 0.00 in0.0 mm 0.00 in0.0 mm 0.02 in0.5 mm
07:30 PM 67.6°F19.8°C 64.0°F17.8°C 88% 2.6 mph SSE4.2 kmh SSE 7.6 mph12.2 kmh 30.01 in1016.3 mb 0.00 in0.0 mm 0.00 in0.0 mm 0.02 in0.5 mm
07:45 PM 67.3°F19.6°C 63.6°F17.6°C 88% 1.8 mph S2.9 kmh S 6.0 mph9.7 kmh 30.02 in1016.6 mb 0.00 in0.0 mm 0.00 in0.0 mm 0.02 in0.5 mm
08:00 PM 67.3°F19.6°C 64.0°F17.8°C 89% 1.6 mph SSE2.6 kmh SSE 5.4 mph8.7 kmh 30.02 in1016.6 mb 0.00 in0.0 mm 0.00 in0.0 mm 0.02 in0.5 mm
08:15 PM 67.3°F19.6°C 64.0°F17.8°C 89% 0.1 mph S0.2 kmh S 2.2 mph3.5 kmh 30.03 in1016.9 mb 0.00 in0.0 mm 0.00 in0.0 mm 0.02 in0.5 mm
08:30 PM 67.1°F19.5°C 63.8°F17.7°C 89% 1.6 mph WNW2.6 kmh WNW 4.5 mph7.2 kmh 30.05 in1017.6 mb 0.00 in0.0 mm 0.00 in0.0 mm 0.02 in0.5 mm
08:45 PM 66.6°F19.2°C 63.2°F17.3°C 89% 1.4 mph W2.3 kmh W 8.3 mph13.4 kmh 30.05 in1017.6 mb 0.00 in0.0 mm 0.00 in0.0 mm 0.02 in0.5 mm
09:00 PM 65.7°F18.7°C 63.0°F17.2°C 91% 0.6 mph NW1.0 kmh NW 4.5 mph7.2 kmh 30.05 in1017.6 mb 0.01 in0.3 mm 0.01 in0.3 mm 0.04 in1.0 mm
09:15 PM 65.3°F18.5°C 62.6°F17.0°C 91% 0.1 mph W0.2 kmh W 1.6 mph2.6 kmh 30.05 in1017.6 mb 0.01 in0.3 mm 0.00 in0.0 mm 0.04 in1.0 mm
09:30 PM 64.9°F18.3°C 62.6°F17.0°C 92% Calm Calm 0.7 mph1.1 kmh 30.04 in1017.3 mb 0.01 in0.3 mm 0.00 in0.0 mm 0.04 in1.0 mm
09:45 PM 64.9°F18.3°C 62.9°F17.2°C 93% Calm Calm 2.2 mph3.5 kmh 30.03 in1016.9 mb 0.01 in0.3 mm 0.00 in0.0 mm 0.04 in1.0 mm
10:00 PM 65.3°F18.5°C 63.6°F17.6°C 94% 0.9 mph E1.4 kmh E 4.5 mph7.2 kmh 30.01 in1016.3 mb 0.00 in0.0 mm 0.00 in0.0 mm 0.04 in1.0 mm
10:15 PM 65.5°F18.6°C 64.0°F17.8°C 95% 0.6 mph E1.0 kmh E 3.8 mph6.1 kmh 30.00 in1015.9 mb 0.00 in0.0 mm 0.00 in0.0 mm 0.04 in1.0 mm
10:30 PM 65.7°F18.7°C 64.2°F17.9°C 95% 0.4 mph ENE0.6 kmh ENE 4.5 mph7.2 kmh 29.99 in1015.6 mb 0.00 in0.0 mm 0.00 in0.0 mm 0.04 in1.0 mm
10:45 PM 65.8°F18.8°C 64.4°F18.0°C 95% 0.1 mph SE0.2 kmh SE 2.2 mph3.5 kmh 29.98 in1015.2 mb 0.00 in0.0 mm 0.00 in0.0 mm 0.04 in1.0 mm
11:00 PM 66.6°F19.2°C 65.1°F18.4°C 95% 0.4 mph NE0.6 kmh NE 3.1 mph5.0 kmh 29.97 in1014.9 mb 0.00 in0.0 mm 0.00 in0.0 mm 0.03 in0.8 mm
11:15 PM 66.7°F19.3°C 65.3°F18.5°C 95% 0.2 mph N0.3 kmh N 4.5 mph7.2 kmh 29.97 in1014.9 mb 0.00 in0.0 mm 0.00 in0.0 mm 0.03 in0.8 mm
11:30 PM 66.4°F19.1°C 64.9°F18.3°C 95% 1.6 mph NW2.6 kmh NW 4.5 mph7.2 kmh 29.97 in1014.9 mb 0.00 in0.0 mm 0.00 in0.0 mm 0.03 in0.8 mm
11:45 PM 66.4°F19.1°C 64.9°F18.3°C 95% Calm Calm 1.6 mph2.6 kmh 29.96 in1014.6 mb 0.00 in0.0 mm 0.00 in0.0 mm 0.03 in0.8 mm